createdAt,value
2023-01-07T00:01:06.493Z,4.40
2023-01-07T00:03:33.770Z,2.60
2023-01-07T00:06:05.515Z,3.50
2023-01-07T00:08:33.656Z,2.03
2023-01-07T00:11:08.580Z,2.53
2023-01-07T00:13:36.104Z,2.60
2023-01-07T00:16:11.250Z,2.40
2023-01-07T00:18:38.187Z,3.27
2023-01-07T00:21:07.191Z,2.97
2023-01-07T00:23:35.566Z,3.57
2023-01-07T00:26:04.714Z,2.80
2023-01-07T00:28:33.824Z,2.37
2023-01-07T00:31:01.655Z,2.23
2023-01-07T00:33:28.386Z,2.20
2023-01-07T00:36:08.408Z,2.40
2023-01-07T00:38:35.815Z,1.80
2023-01-07T00:41:02.907Z,1.93
2023-01-07T00:43:29.665Z,2.13
2023-01-07T00:45:56.191Z,1.80
2023-01-07T00:48:23.889Z,1.67
2023-01-07T00:50:51.912Z,2.43
2023-01-07T00:53:18.868Z,1.87
2023-01-07T00:55:45.371Z,1.80
2023-01-07T00:58:15.826Z,1.97
2023-01-07T01:00:42.833Z,1.80
2023-01-07T01:03:11.814Z,1.83
2023-01-07T01:05:39.090Z,1.80
2023-01-07T01:08:06.182Z,1.60
2023-01-07T01:10:32.694Z,1.60
2023-01-07T01:13:00.191Z,1.73
2023-01-07T01:15:26.803Z,1.70
2023-01-07T01:17:53.609Z,1.73
2023-01-07T01:20:20.501Z,1.57
2023-01-07T01:22:47.079Z,2.03
2023-01-07T01:25:14.103Z,2.10
2023-01-07T01:27:40.608Z,1.63
2023-01-07T01:30:07.717Z,1.60
2023-01-07T01:32:36.800Z,1.93
2023-01-07T01:35:03.381Z,1.77
2023-01-07T01:37:29.792Z,1.53
2023-01-07T01:39:57.372Z,1.53
2023-01-07T01:42:25.177Z,1.50
2023-01-07T01:44:58.033Z,1.37
2023-01-07T01:47:52.533Z,1.43
2023-01-07T01:50:41.376Z,1.50
2023-01-07T01:53:13.499Z,1.30
2023-01-07T01:55:49.064Z,1.30
2023-01-07T01:58:28.062Z,1.57
2023-01-07T02:00:55.403Z,1.30
2023-01-07T02:03:24.423Z,1.30
2023-01-07T02:05:51.162Z,1.77
2023-01-07T02:08:22.003Z,1.33
2023-01-07T02:11:00.925Z,1.83
2023-01-07T02:13:56.534Z,1.70
2023-01-07T02:16:51.145Z,1.37
2023-01-07T02:19:28.361Z,2.33
2023-01-07T02:22:05.695Z,2.00
2023-01-07T02:24:46.381Z,2.33
2023-01-07T02:27:21.463Z,3.30
2023-01-07T02:30:04.094Z,3.87
2023-01-07T02:32:54.198Z,3.17
2023-01-07T02:35:38.682Z,2.57
2023-01-07T02:38:20.685Z,2.57
2023-01-07T02:41:17.199Z,3.40
2023-01-07T02:43:55.018Z,1.70
2023-01-07T02:46:33.564Z,3.10
2023-01-07T02:49:04.245Z,2.67
2023-01-07T02:51:35.815Z,3.13
2023-01-07T02:54:02.992Z,3.10
2023-01-07T02:57:06.534Z,2.70
2023-01-07T02:59:58.138Z,2.17
2023-01-07T03:03:02.697Z,2.27
2023-01-07T03:05:40.012Z,3.07
2023-01-07T03:08:26.137Z,2.77
2023-01-07T03:11:01.673Z,2.87
2023-01-07T03:13:51.932Z,2.77
2023-01-07T03:16:25.939Z,3.33
2023-01-07T03:19:07.140Z,2.90
2023-01-07T03:21:35.928Z,3.40
2023-01-07T03:24:02.762Z,2.30
2023-01-07T03:26:37.907Z,2.73
2023-01-07T03:29:07.049Z,2.83
2023-01-07T03:31:36.525Z,3.00
2023-01-07T03:34:06.548Z,1.83
2023-01-07T03:36:37.799Z,2.80
2023-01-07T03:39:07.113Z,2.00
2023-01-07T03:41:52.124Z,2.70
2023-01-07T03:44:18.560Z,2.47
2023-01-07T03:46:45.168Z,2.47
2023-01-07T03:49:11.981Z,2.17
2023-01-07T03:51:38.566Z,2.30
2023-01-07T03:54:05.136Z,2.50
2023-01-07T03:56:31.792Z,2.50
2023-01-07T03:58:58.161Z,1.83
2023-01-07T04:01:24.632Z,1.50
2023-01-07T04:03:51.264Z,1.97
2023-01-07T04:06:17.621Z,2.03
2023-01-07T04:08:44.150Z,2.20
2023-01-07T04:11:11.002Z,1.60
2023-01-07T04:13:38.082Z,1.70
2023-01-07T04:16:04.882Z,1.77
2023-01-07T04:18:31.489Z,1.50
2023-01-07T04:20:57.869Z,1.40
2023-01-07T04:23:24.484Z,1.50
2023-01-07T04:25:52.567Z,1.50
2023-01-07T04:28:22.254Z,1.43
2023-01-07T04:30:48.769Z,1.73
2023-01-07T04:33:15.188Z,1.03
2023-01-07T04:35:41.713Z,1.70
2023-01-07T04:38:08.261Z,1.57
2023-01-07T04:40:34.669Z,1.70
2023-01-07T04:43:02.114Z,1.80
2023-01-07T04:45:29.950Z,1.60
2023-01-07T04:47:58.028Z,1.63
2023-01-07T04:50:25.086Z,1.97
2023-01-07T04:52:51.982Z,1.40
2023-01-07T04:55:18.721Z,1.90
2023-01-07T04:57:46.481Z,1.67
2023-01-07T05:00:14.405Z,1.80
2023-01-07T05:02:41.808Z,2.10
2023-01-07T05:05:10.695Z,1.90
2023-01-07T05:07:38.263Z,1.33
2023-01-07T05:10:06.303Z,1.53
2023-01-07T05:12:36.776Z,2.10
2023-01-07T05:15:06.494Z,2.00
2023-01-07T05:17:35.395Z,1.90
2023-01-07T05:20:05.028Z,1.50
2023-01-07T05:22:31.584Z,1.97
2023-01-07T05:24:57.943Z,1.97
2023-01-07T05:27:26.396Z,2.03
2023-01-07T05:29:52.856Z,1.83
2023-01-07T05:32:19.322Z,2.10
2023-01-07T05:34:45.773Z,3.20
2023-01-07T05:37:12.553Z,3.10
2023-01-07T05:39:40.672Z,3.37
2023-01-07T05:42:07.922Z,3.03
2023-01-07T05:44:34.465Z,2.90
2023-01-07T05:47:00.899Z,3.10
2023-01-07T05:49:27.311Z,3.30
2023-01-07T05:51:53.669Z,2.70
2023-01-07T05:54:20.024Z,3.30
2023-01-07T05:56:46.373Z,3.10
2023-01-07T05:59:12.770Z,3.10
2023-01-07T06:01:39.108Z,3.20
2023-01-07T06:04:05.628Z,3.27
2023-01-07T06:06:31.977Z,3.00
2023-01-07T06:08:58.354Z,2.90
2023-01-07T06:11:24.775Z,3.30
2023-01-07T06:13:51.191Z,3.20
2023-01-07T06:16:17.655Z,3.07
2023-01-07T06:18:44.041Z,2.83
2023-01-07T06:21:10.459Z,3.10
2023-01-07T06:23:37.168Z,4.13
2023-01-07T06:26:03.630Z,3.17
2023-01-07T06:28:30.004Z,3.30
2023-01-07T06:30:56.387Z,2.93
2023-01-07T06:33:22.817Z,2.90
2023-01-07T06:35:49.210Z,2.90
2023-01-07T06:38:15.612Z,3.47
2023-01-07T06:40:42.039Z,3.67
2023-01-07T06:43:08.436Z,2.73
2023-01-07T06:45:34.903Z,2.23
2023-01-07T06:48:01.580Z,2.50
2023-01-07T06:50:27.946Z,2.80
2023-01-07T06:52:54.382Z,2.87
2023-01-07T06:55:20.727Z,2.60
2023-01-07T06:57:47.130Z,2.40
2023-01-07T07:00:14.207Z,10.67
2023-01-07T07:02:40.705Z,2.20
2023-01-07T07:05:07.454Z,2.13
2023-01-07T07:07:34.064Z,2.50
2023-01-07T07:10:04.450Z,2.37
2023-01-07T07:12:30.803Z,2.30
2023-01-07T07:14:57.139Z,2.30
2023-01-07T07:17:23.521Z,2.93
2023-01-07T07:19:49.899Z,3.40
2023-01-07T07:22:16.286Z,3.40
2023-01-07T07:24:42.692Z,3.47
2023-01-07T07:27:09.106Z,2.40
2023-01-07T07:29:35.454Z,2.83
2023-01-07T07:32:01.897Z,2.70
2023-01-07T07:34:28.305Z,3.13
2023-01-07T07:36:54.653Z,2.50
2023-01-07T07:39:21.148Z,2.47
2023-01-07T07:41:47.501Z,2.63
2023-01-07T07:44:16.972Z,2.30
2023-01-07T07:46:43.401Z,2.37
2023-01-07T07:49:11.272Z,2.33
2023-01-07T07:51:38.048Z,2.43
2023-01-07T07:54:04.532Z,2.73
2023-01-07T07:56:30.986Z,2.50
2023-01-07T07:58:57.377Z,2.23
2023-01-07T08:01:23.830Z,2.20
2023-01-07T08:03:50.316Z,2.33
2023-01-07T08:06:16.669Z,2.73
2023-01-07T08:08:43.111Z,2.20
2023-01-07T08:11:09.701Z,2.40
2023-01-07T08:13:36.147Z,2.13
2023-01-07T08:16:02.626Z,2.20
2023-01-07T08:18:29.023Z,2.40
2023-01-07T08:20:55.705Z,2.30
2023-01-07T08:23:22.226Z,2.30
2023-01-07T08:25:48.840Z,2.43
2023-01-07T08:28:15.247Z,2.03
2023-01-07T08:30:42.495Z,1.77
2023-01-07T08:33:09.164Z,1.93
2023-01-07T08:35:35.725Z,2.40
2023-01-07T08:38:07.830Z,2.00
2023-01-07T08:40:35.499Z,2.27
2023-01-07T08:43:04.054Z,2.73
2023-01-07T08:45:31.226Z,1.40
2023-01-07T08:47:57.844Z,1.63
2023-01-07T08:50:29.717Z,1.50
2023-01-07T08:52:56.381Z,1.90
2023-01-07T08:55:22.982Z,1.93
2023-01-07T08:57:49.778Z,1.87
2023-01-07T09:00:17.688Z,1.73
2023-01-07T09:02:44.818Z,1.57
2023-01-07T09:05:11.555Z,1.87
2023-01-07T09:07:38.014Z,1.80
2023-01-07T09:10:05.437Z,1.77
2023-01-07T09:12:32.104Z,1.73
2023-01-07T09:14:58.535Z,1.20
2023-01-07T09:17:24.924Z,1.83
2023-01-07T09:19:51.253Z,1.60
2023-01-07T09:22:17.601Z,1.50
2023-01-07T09:24:44.910Z,1.30
2023-01-07T09:27:12.475Z,1.77
2023-01-07T09:29:38.840Z,1.90
2023-01-07T09:32:05.277Z,1.50
2023-01-07T09:34:32.070Z,1.73
2023-01-07T09:36:58.502Z,1.80
2023-01-07T09:39:24.921Z,1.73
2023-01-07T09:42:03.572Z,2.20
2023-01-07T09:44:41.698Z,2.20
2023-01-07T09:47:09.655Z,2.17
2023-01-07T09:49:36.349Z,2.00
2023-01-07T09:52:11.022Z,1.97
2023-01-07T09:54:39.343Z,1.93
2023-01-07T09:57:05.993Z,2.17
2023-01-07T09:59:32.764Z,2.47
2023-01-07T10:02:37.827Z,1.60
2023-01-07T10:05:38.331Z,1.67
2023-01-07T10:08:37.217Z,2.13
2023-01-07T10:11:33.325Z,1.90
2023-01-07T10:14:37.256Z,1.90
2023-01-07T10:17:26.589Z,1.77
2023-01-07T10:20:07.120Z,1.80
2023-01-07T10:22:48.854Z,1.77
2023-01-07T10:25:20.347Z,1.63
2023-01-07T10:27:48.427Z,1.90
2023-01-07T10:30:30.948Z,1.97
2023-01-07T10:33:17.820Z,1.97
2023-01-07T10:35:48.790Z,1.83
2023-01-07T10:38:19.565Z,2.03
2023-01-07T10:40:58.011Z,2.40
2023-01-07T10:43:46.048Z,2.03
2023-01-07T10:46:47.223Z,2.17
2023-01-07T10:49:44.575Z,2.00
2023-01-07T10:52:19.863Z,2.10
2023-01-07T10:55:05.105Z,2.17
2023-01-07T10:57:33.473Z,2.13
2023-01-07T11:00:02.592Z,1.97
2023-01-07T11:02:29.746Z,1.87
2023-01-07T11:04:57.184Z,2.20
2023-01-07T11:07:40.780Z,2.40
2023-01-07T11:10:12.503Z,1.60
2023-01-07T11:12:51.951Z,2.00
2023-01-07T11:15:39.759Z,1.93
2023-01-07T11:18:31.208Z,1.90
2023-01-07T11:20:59.356Z,1.70
2023-01-07T11:23:38.535Z,2.37
2023-01-07T11:26:16.061Z,2.23
2023-01-07T11:29:13.587Z,2.17
2023-01-07T11:31:50.587Z,2.70
2023-01-07T11:34:23.954Z,2.20
2023-01-07T11:36:51.093Z,2.03
2023-01-07T11:39:29.675Z,2.60
2023-01-07T11:41:57.877Z,3.60
2023-01-07T11:44:25.164Z,2.50
2023-01-07T11:46:52.620Z,2.77
2023-01-07T11:49:23.667Z,2.47
2023-01-07T11:51:50.242Z,2.47
2023-01-07T11:54:25.536Z,2.40
2023-01-07T11:56:54.157Z,2.50
2023-01-07T11:59:21.322Z,2.77
2023-01-07T12:01:53.792Z,2.90
2023-01-07T12:04:26.555Z,3.03
2023-01-07T12:06:56.836Z,2.70
2023-01-07T12:09:35.551Z,2.53
2023-01-07T12:12:34.365Z,3.10
2023-01-07T12:15:04.693Z,2.37
2023-01-07T12:17:34.353Z,3.00
2023-01-07T12:20:12.755Z,3.17
2023-01-07T12:23:07.771Z,2.97
2023-01-07T12:26:15.007Z,3.00
2023-01-07T12:28:50.349Z,3.17
2023-01-07T12:31:50.167Z,2.47
2023-01-07T12:34:29.608Z,3.30
2023-01-07T12:37:03.899Z,2.60
2023-01-07T12:39:39.233Z,2.33
2023-01-07T12:44:53.950Z,3.23
2023-01-07T12:48:02.441Z,2.70
2023-01-07T12:50:35.804Z,3.20
2023-01-07T12:53:07.481Z,3.73
2023-01-07T12:55:36.973Z,3.80
2023-01-07T12:58:15.110Z,2.83
2023-01-07T13:00:50.710Z,2.67
2023-01-07T13:03:28.485Z,2.57
2023-01-07T13:06:01.581Z,3.20
2023-01-07T13:08:56.568Z,3.47
2023-01-07T13:11:58.518Z,2.83
2023-01-07T13:14:33.247Z,2.50
2023-01-07T13:17:13.426Z,2.37
2023-01-07T13:19:39.763Z,2.20
2023-01-07T13:22:15.049Z,2.30
2023-01-07T13:24:56.939Z,2.80
2023-01-07T13:27:48.400Z,3.20
2023-01-07T13:30:34.256Z,2.40
2023-01-07T13:33:09.815Z,2.43
2023-01-07T13:35:47.493Z,2.80
2023-01-07T13:38:33.454Z,1.90
2023-01-07T13:41:49.121Z,3.43
2023-01-07T13:44:35.889Z,2.33
2023-01-07T13:47:04.973Z,2.77
2023-01-07T13:49:33.592Z,2.50
2023-01-07T13:52:18.216Z,2.97
2023-01-07T13:54:47.590Z,2.00
2023-01-07T13:57:23.253Z,2.83
2023-01-07T13:59:53.009Z,2.70
2023-01-07T14:02:22.493Z,3.20
2023-01-07T14:05:27.173Z,2.33
2023-01-07T14:08:00.011Z,2.40
2023-01-07T14:10:30.872Z,2.40
2023-01-07T14:13:15.665Z,2.83
2023-01-07T14:16:07.510Z,2.60
2023-01-07T14:18:59.784Z,2.80
2023-01-07T14:21:43.431Z,2.73
2023-01-07T14:24:26.843Z,2.77
2023-01-07T14:27:23.496Z,2.63
2023-01-07T14:29:54.294Z,2.63
2023-01-07T14:32:33.002Z,2.20
2023-01-07T14:35:20.062Z,2.50
2023-01-07T14:37:46.931Z,2.60
2023-01-07T14:40:25.474Z,2.80
2023-01-07T14:42:53.664Z,2.40
2023-01-07T14:45:41.814Z,2.43
2023-01-07T14:48:08.100Z,2.30
2023-01-07T14:50:46.959Z,2.37
2023-01-07T14:53:16.364Z,2.37
2023-01-07T14:55:56.985Z,2.47
2023-01-07T14:59:08.043Z,2.13
2023-01-07T15:01:54.703Z,2.20
2023-01-07T15:04:28.404Z,2.40
2023-01-07T15:07:00.413Z,2.83
2023-01-07T15:10:10.391Z,2.80
2023-01-07T15:13:13.468Z,2.47
2023-01-07T15:16:02.350Z,3.30
2023-01-07T15:18:31.070Z,3.17
2023-01-07T15:21:35.286Z,2.60
2023-01-07T15:24:17.409Z,2.50
2023-01-07T15:27:14.533Z,2.70
2023-01-07T15:29:40.814Z,2.60
2023-01-07T15:32:20.128Z,3.43
2023-01-07T15:34:47.098Z,2.30
2023-01-07T15:37:15.385Z,2.60
2023-01-07T15:39:49.393Z,5.47
2023-01-07T15:42:20.185Z,7.10
2023-01-07T15:44:53.122Z,4.70
2023-01-07T15:47:52.199Z,4.10
2023-01-07T15:50:18.507Z,4.00
2023-01-07T15:52:50.362Z,3.10
2023-01-07T15:55:25.841Z,3.97
2023-01-07T15:57:59.867Z,3.30
2023-01-07T16:00:26.457Z,4.07
2023-01-07T16:02:53.066Z,3.20
2023-01-07T16:05:19.668Z,3.50
2023-01-07T16:07:54.947Z,3.30
2023-01-07T16:10:24.082Z,3.27
2023-01-07T16:12:53.487Z,3.57
2023-01-07T16:15:31.832Z,3.70
2023-01-07T16:18:08.478Z,3.70
2023-01-07T16:20:38.419Z,4.67
2023-01-07T16:23:15.549Z,5.10
2023-01-07T16:25:48.784Z,4.33
2023-01-07T16:28:26.068Z,4.60
2023-01-07T16:30:54.143Z,4.70
2023-01-07T16:33:24.079Z,3.33
2023-01-07T16:35:53.690Z,4.00
2023-01-07T16:38:20.889Z,4.47
2023-01-07T16:40:48.145Z,3.87
2023-01-07T16:43:43.260Z,4.23
2023-01-07T16:46:27.298Z,4.47
2023-01-07T16:49:19.659Z,4.40
2023-01-07T16:52:03.195Z,4.00
2023-01-07T16:54:32.153Z,4.60
2023-01-07T16:57:16.762Z,4.33
2023-01-07T16:59:53.698Z,3.87
2023-01-07T17:02:34.144Z,5.13
2023-01-07T17:05:19.912Z,6.10
2023-01-07T17:08:00.328Z,7.87
2023-01-07T17:10:30.108Z,4.40
2023-01-07T17:13:02.007Z,5.43
2023-01-07T17:15:31.519Z,4.30
2023-01-07T17:18:13.135Z,3.57
2023-01-07T17:20:50.664Z,3.47
2023-01-07T17:23:41.291Z,3.43
2023-01-07T17:26:10.770Z,3.33
2023-01-07T17:28:46.593Z,3.47
2023-01-07T17:31:12.992Z,3.57
2023-01-07T17:33:39.517Z,3.67
2023-01-07T17:36:06.309Z,3.73
2023-01-07T17:38:32.751Z,3.93
2023-01-07T17:40:59.193Z,3.53
2023-01-07T17:43:35.773Z,3.10
2023-01-07T17:46:10.670Z,3.57
2023-01-07T17:48:37.403Z,3.50
2023-01-07T17:51:05.320Z,3.47
2023-01-07T17:53:34.021Z,3.60
2023-01-07T17:56:01.378Z,3.10
2023-01-07T17:58:33.224Z,3.47
2023-01-07T18:01:02.570Z,5.33
2023-01-07T18:03:29.156Z,3.83
2023-01-07T18:05:55.531Z,4.13
2023-01-07T18:08:21.904Z,3.40
2023-01-07T18:11:09.581Z,4.00
2023-01-07T18:13:36.175Z,3.47
2023-01-07T18:16:03.088Z,3.37
2023-01-07T18:18:29.464Z,3.63
2023-01-07T18:20:57.119Z,3.10
2023-01-07T18:23:24.535Z,3.80
2023-01-07T18:25:51.348Z,4.00
2023-01-07T18:28:17.861Z,3.80
2023-01-07T18:30:44.497Z,3.50
2023-01-07T18:33:11.898Z,3.57
2023-01-07T18:35:41.738Z,4.30
2023-01-07T18:38:15.608Z,4.20
2023-01-07T18:40:42.598Z,3.77
2023-01-07T18:43:16.886Z,3.87
2023-01-07T18:45:45.224Z,4.40
2023-01-07T18:48:13.345Z,4.20
2023-01-07T18:50:43.917Z,4.00
2023-01-07T18:53:10.878Z,3.80
2023-01-07T18:55:38.858Z,4.37
2023-01-07T18:58:05.840Z,3.80
2023-01-07T19:00:32.845Z,4.30
2023-01-07T19:02:59.652Z,4.27
2023-01-07T19:05:27.650Z,4.13
2023-01-07T19:07:55.271Z,4.63
2023-01-07T19:10:23.012Z,4.57
2023-01-07T19:12:50.251Z,4.47
2023-01-07T19:15:16.983Z,4.13
2023-01-07T19:17:43.388Z,3.60
2023-01-07T19:20:10.493Z,4.00
2023-01-07T19:22:36.812Z,4.17
2023-01-07T19:25:03.271Z,3.83
2023-01-07T19:27:29.638Z,4.73
2023-01-07T19:29:55.958Z,4.67
2023-01-07T19:32:22.276Z,5.33
2023-01-07T19:34:49.628Z,5.00
2023-01-07T19:37:15.990Z,4.73
2023-01-07T19:39:42.375Z,4.30
2023-01-07T19:42:09.838Z,5.00
2023-01-07T19:44:38.243Z,4.30
2023-01-07T19:47:04.777Z,4.40
2023-01-07T19:49:31.135Z,4.67
2023-01-07T19:51:57.610Z,4.67
2023-01-07T19:54:24.035Z,4.37
2023-01-07T19:56:50.389Z,4.00
2023-01-07T19:59:16.721Z,3.70
2023-01-07T20:01:44.972Z,4.10
2023-01-07T20:04:11.533Z,5.13
2023-01-07T20:06:41.188Z,4.90
2023-01-07T20:09:10.751Z,5.30
2023-01-07T20:11:38.415Z,4.23
2023-01-07T20:14:05.358Z,4.50
2023-01-07T20:16:31.820Z,4.23
2023-01-07T20:18:58.205Z,3.70
2023-01-07T20:21:25.729Z,3.67
2023-01-07T20:23:52.804Z,4.00
2023-01-07T20:26:21.979Z,4.33
2023-01-07T20:28:49.039Z,3.70
2023-01-07T20:31:18.011Z,4.37
2023-01-07T20:33:45.304Z,4.50
2023-01-07T20:36:14.573Z,4.13
2023-01-07T20:38:41.833Z,3.80
2023-01-07T20:41:11.973Z,3.87
2023-01-07T20:43:38.368Z,3.80
2023-01-07T20:46:06.689Z,4.07
2023-01-07T20:48:34.203Z,4.70
2023-01-07T20:51:08.004Z,4.93
2023-01-07T20:53:35.934Z,4.20
2023-01-07T20:56:03.693Z,4.90
2023-01-07T20:58:31.497Z,4.57
2023-01-07T21:00:58.078Z,4.50
2023-01-07T21:03:24.574Z,4.97
2023-01-07T21:05:55.812Z,4.20
2023-01-07T21:08:22.324Z,4.57
2023-01-07T21:10:48.704Z,4.10
2023-01-07T21:13:15.139Z,4.03
2023-01-07T21:15:41.549Z,4.83
2023-01-07T21:18:07.923Z,4.60
2023-01-07T21:20:34.313Z,4.67
2023-01-07T21:23:00.633Z,4.13
2023-01-07T21:25:27.152Z,3.93
2023-01-07T21:27:53.468Z,4.20
2023-01-07T21:30:20.112Z,4.30
2023-01-07T21:32:47.331Z,4.83
2023-01-07T21:35:14.169Z,4.10
2023-01-07T21:37:40.682Z,4.20
2023-01-07T21:40:07.578Z,3.67
2023-01-07T21:42:37.104Z,4.20
2023-01-07T21:45:05.184Z,3.73
2023-01-07T21:47:33.710Z,4.03
2023-01-07T21:50:00.067Z,3.40
2023-01-07T21:52:28.920Z,4.40
2023-01-07T21:54:56.095Z,4.00
2023-01-07T21:57:23.637Z,3.57
2023-01-07T21:59:49.963Z,3.53
2023-01-07T22:02:18.555Z,4.27
2023-01-07T22:04:46.074Z,3.97
2023-01-07T22:07:17.615Z,4.70
2023-01-07T22:09:44.876Z,3.83
2023-01-07T22:12:12.322Z,3.80
2023-01-07T22:14:38.979Z,3.73
2023-01-07T22:17:06.280Z,3.70
2023-01-07T22:19:32.639Z,3.93
2023-01-07T22:21:59.412Z,3.10
2023-01-07T22:24:25.831Z,3.20
2023-01-07T22:26:52.709Z,3.40
2023-01-07T22:29:19.058Z,3.87
2023-01-07T22:31:48.725Z,2.60
2023-01-07T22:34:15.156Z,3.23
2023-01-07T22:36:52.814Z,3.40
2023-01-07T22:39:31.541Z,3.27
2023-01-07T22:42:03.316Z,3.37
2023-01-07T22:44:36.518Z,3.50
2023-01-07T22:47:05.048Z,3.87
2023-01-07T22:49:32.820Z,5.37
2023-01-07T22:51:59.369Z,4.37
2023-01-07T22:54:26.194Z,6.07
2023-01-07T22:56:52.874Z,5.83
2023-01-07T22:59:19.220Z,4.77
2023-01-07T23:01:45.615Z,4.43
2023-01-07T23:04:12.313Z,5.57
2023-01-07T23:06:38.825Z,4.47
2023-01-07T23:09:05.675Z,3.70
2023-01-07T23:11:48.280Z,3.03
2023-01-07T23:14:19.993Z,3.00
2023-01-07T23:16:46.705Z,2.60
2023-01-07T23:19:13.848Z,2.30
2023-01-07T23:21:43.183Z,2.50
2023-01-07T23:24:10.635Z,2.63
2023-01-07T23:26:37.445Z,2.93
2023-01-07T23:29:04.383Z,2.47
2023-01-07T23:31:33.225Z,2.27
2023-01-07T23:34:00.561Z,2.23
2023-01-07T23:36:27.510Z,2.23
2023-01-07T23:38:53.925Z,2.83
2023-01-07T23:41:20.433Z,2.50
2023-01-07T23:43:47.760Z,1.97
2023-01-07T23:46:14.158Z,2.60
2023-01-07T23:48:40.626Z,2.57
2023-01-07T23:51:09.984Z,2.47
2023-01-07T23:53:36.522Z,2.40
2023-01-07T23:56:03.809Z,2.00
2023-01-07T23:58:30.746Z,2.73
